sensor_id;sensor_type;location;lat;lon;timestamp;P1;durP1;ratioP1;P2;durP2;ratioP2
76121;SDS011;70471;53.200;6.080;2024-02-15T00:01:56;2.55;;;1.00;;
76121;SDS011;70471;53.200;6.080;2024-02-15T00:06:49;2.28;;;0.95;;
76121;SDS011;70471;53.200;6.080;2024-02-15T00:11:42;2.90;;;0.90;;
76121;SDS011;70471;53.200;6.080;2024-02-15T00:16:34;1.55;;;0.80;;
76121;SDS011;70471;53.200;6.080;2024-02-15T00:21:27;1.67;;;0.90;;
76121;SDS011;70471;53.200;6.080;2024-02-15T00:26:20;2.25;;;0.73;;
76121;SDS011;70471;53.200;6.080;2024-02-15T00:31:13;2.60;;;1.00;;
76121;SDS011;70471;53.200;6.080;2024-02-15T00:36:05;2.10;;;1.08;;
76121;SDS011;70471;53.200;6.080;2024-02-15T00:40:58;1.20;;;0.50;;
76121;SDS011;70471;53.200;6.080;2024-02-15T00:45:53;2.15;;;0.88;;
76121;SDS011;70471;53.200;6.080;2024-02-15T00:50:45;1.67;;;0.90;;
76121;SDS011;70471;53.200;6.080;2024-02-15T00:55:37;1.85;;;1.02;;
76121;SDS011;70471;53.200;6.080;2024-02-15T01:00:29;0.88;;;0.50;;
76121;SDS011;70471;53.200;6.080;2024-02-15T01:05:23;0.50;;;0.50;;
76121;SDS011;70471;53.200;6.080;2024-02-15T01:10:15;1.45;;;0.70;;
76121;SDS011;70471;53.200;6.080;2024-02-15T01:15:08;1.38;;;0.57;;
76121;SDS011;70471;53.200;6.080;2024-02-15T01:20:00;1.40;;;0.50;;
76121;SDS011;70471;53.200;6.080;2024-02-15T01:24:54;1.17;;;0.77;;
76121;SDS011;70471;53.200;6.080;2024-02-15T01:29:47;0.95;;;0.68;;
76121;SDS011;70471;53.200;6.080;2024-02-15T01:34:40;1.08;;;0.68;;
76121;SDS011;70471;53.200;6.080;2024-02-15T01:39:32;1.65;;;0.95;;
76121;SDS011;70471;53.200;6.080;2024-02-15T01:44:26;1.80;;;0.60;;
76121;SDS011;70471;53.200;6.080;2024-02-15T01:49:18;1.52;;;0.57;;
76121;SDS011;70471;53.200;6.080;2024-02-15T01:54:12;1.58;;;0.68;;
76121;SDS011;70471;53.200;6.080;2024-02-15T01:59:05;1.50;;;0.60;;
76121;SDS011;70471;53.200;6.080;2024-02-15T02:03:59;0.95;;;0.43;;
76121;SDS011;70471;53.200;6.080;2024-02-15T02:08:52;1.42;;;0.60;;
76121;SDS011;70471;53.200;6.080;2024-02-15T02:13:46;0.88;;;0.50;;
76121;SDS011;70471;53.200;6.080;2024-02-15T02:18:38;0.60;;;0.40;;
76121;SDS011;70471;53.200;6.080;2024-02-15T02:23:32;2.20;;;0.88;;
76121;SDS011;70471;53.200;6.080;2024-02-15T02:28:26;1.35;;;0.45;;
76121;SDS011;70471;53.200;6.080;2024-02-15T02:33:18;1.02;;;0.50;;
76121;SDS011;70471;53.200;6.080;2024-02-15T02:38:13;1.13;;;0.50;;
76121;SDS011;70471;53.200;6.080;2024-02-15T02:43:05;0.68;;;0.50;;
76121;SDS011;70471;53.200;6.080;2024-02-15T02:47:59;2.40;;;0.50;;
76121;SDS011;70471;53.200;6.080;2024-02-15T02:52:52;0.80;;;0.50;;
76121;SDS011;70471;53.200;6.080;2024-02-15T02:57:44;1.63;;;0.40;;
76121;SDS011;70471;53.200;6.080;2024-02-15T03:02:37;2.47;;;0.50;;
76121;SDS011;70471;53.200;6.080;2024-02-15T03:07:34;0.73;;;0.60;;
76121;SDS011;70471;53.200;6.080;2024-02-15T03:12:26;1.30;;;0.35;;
76121;SDS011;70471;53.200;6.080;2024-02-15T03:17:20;1.90;;;0.40;;
76121;SDS011;70471;53.200;6.080;2024-02-15T03:22:11;1.58;;;0.60;;
76121;SDS011;70471;53.200;6.080;2024-02-15T03:27:05;1.98;;;1.05;;
76121;SDS011;70471;53.200;6.080;2024-02-15T03:31:57;0.95;;;0.40;;
76121;SDS011;70471;53.200;6.080;2024-02-15T03:36:49;0.82;;;0.38;;
76121;SDS011;70471;53.200;6.080;2024-02-15T03:41:44;0.45;;;0.40;;
76121;SDS011;70471;53.200;6.080;2024-02-15T03:46:38;0.35;;;0.28;;
76121;SDS011;70471;53.200;6.080;2024-02-15T03:51:31;1.10;;;0.57;;
76121;SDS011;70471;53.200;6.080;2024-02-15T03:56:23;0.52;;;0.30;;
76121;SDS011;70471;53.200;6.080;2024-02-15T04:01:15;1.42;;;0.47;;
76121;SDS011;70471;53.200;6.080;2024-02-15T04:06:09;2.13;;;0.93;;
76121;SDS011;70471;53.200;6.080;2024-02-15T04:11:01;1.85;;;0.75;;
76121;SDS011;70471;53.200;6.080;2024-02-15T04:15:56;2.70;;;0.70;;
76121;SDS011;70471;53.200;6.080;2024-02-15T04:20:48;0.88;;;0.60;;
76121;SDS011;70471;53.200;6.080;2024-02-15T04:25:43;2.33;;;0.90;;
76121;SDS011;70471;53.200;6.080;2024-02-15T04:30:41;1.92;;;0.40;;
76121;SDS011;70471;53.200;6.080;2024-02-15T04:35:33;0.95;;;0.55;;
76121;SDS011;70471;53.200;6.080;2024-02-15T04:40:26;1.75;;;0.60;;
76121;SDS011;70471;53.200;6.080;2024-02-15T04:45:20;1.67;;;0.55;;
76121;SDS011;70471;53.200;6.080;2024-02-15T04:50:13;1.20;;;0.60;;
76121;SDS011;70471;53.200;6.080;2024-02-15T04:55:08;1.25;;;0.70;;
76121;SDS011;70471;53.200;6.080;2024-02-15T05:00:01;1.10;;;0.43;;
76121;SDS011;70471;53.200;6.080;2024-02-15T05:05:00;1.75;;;0.60;;
76121;SDS011;70471;53.200;6.080;2024-02-15T05:09:53;1.25;;;0.70;;
76121;SDS011;70471;53.200;6.080;2024-02-15T05:14:45;2.03;;;0.80;;
76121;SDS011;70471;53.200;6.080;2024-02-15T05:19:39;1.75;;;0.80;;
76121;SDS011;70471;53.200;6.080;2024-02-15T05:24:33;0.93;;;0.75;;
76121;SDS011;70471;53.200;6.080;2024-02-15T05:29:26;1.55;;;0.63;;
76121;SDS011;70471;53.200;6.080;2024-02-15T05:34:18;1.08;;;0.80;;
76121;SDS011;70471;53.200;6.080;2024-02-15T05:39:10;1.60;;;0.70;;
76121;SDS011;70471;53.200;6.080;2024-02-15T05:44:06;1.67;;;0.55;;
76121;SDS011;70471;53.200;6.080;2024-02-15T05:48:59;1.95;;;0.80;;
76121;SDS011;70471;53.200;6.080;2024-02-15T05:53:52;1.08;;;0.57;;
76121;SDS011;70471;53.200;6.080;2024-02-15T05:58:48;1.33;;;0.80;;
76121;SDS011;70471;53.200;6.080;2024-02-15T06:03:43;1.13;;;0.40;;
76121;SDS011;70471;53.200;6.080;2024-02-15T06:08:36;0.70;;;0.50;;
76121;SDS011;70471;53.200;6.080;2024-02-15T06:13:29;1.00;;;0.73;;
76121;SDS011;70471;53.200;6.080;2024-02-15T06:18:23;0.88;;;0.50;;
76121;SDS011;70471;53.200;6.080;2024-02-15T06:23:20;1.77;;;1.05;;
76121;SDS011;70471;53.200;6.080;2024-02-15T06:28:12;0.90;;;0.70;;
76121;SDS011;70471;53.200;6.080;2024-02-15T06:33:25;1.00;;;0.60;;
76121;SDS011;70471;53.200;6.080;2024-02-15T06:38:36;1.23;;;0.70;;
76121;SDS011;70471;53.200;6.080;2024-02-15T06:43:45;1.50;;;1.02;;
76121;SDS011;70471;53.200;6.080;2024-02-15T06:48:37;1.65;;;1.00;;
76121;SDS011;70471;53.200;6.080;2024-02-15T06:53:31;1.52;;;1.13;;
76121;SDS011;70471;53.200;6.080;2024-02-15T06:58:25;1.20;;;0.77;;
76121;SDS011;70471;53.200;6.080;2024-02-15T07:03:18;1.30;;;1.08;;
76121;SDS011;70471;53.200;6.080;2024-02-15T07:08:13;1.13;;;0.77;;
76121;SDS011;70471;53.200;6.080;2024-02-15T07:13:05;1.05;;;0.60;;
76121;SDS011;70471;53.200;6.080;2024-02-15T07:17:58;1.38;;;1.17;;
76121;SDS011;70471;53.200;6.080;2024-02-15T07:22:51;1.30;;;1.10;;
76121;SDS011;70471;53.200;6.080;2024-02-15T07:27:43;1.05;;;0.80;;
76121;SDS011;70471;53.200;6.080;2024-02-15T07:32:36;1.35;;;1.05;;
76121;SDS011;70471;53.200;6.080;2024-02-15T07:37:29;1.02;;;0.70;;
76121;SDS011;70471;53.200;6.080;2024-02-15T07:42:23;2.15;;;1.08;;
76121;SDS011;70471;53.200;6.080;2024-02-15T07:47:15;0.77;;;0.70;;
76121;SDS011;70471;53.200;6.080;2024-02-15T07:52:10;0.95;;;0.90;;
76121;SDS011;70471;53.200;6.080;2024-02-15T07:57:05;2.25;;;1.00;;
76121;SDS011;70471;53.200;6.080;2024-02-15T08:01:59;1.20;;;0.70;;
76121;SDS011;70471;53.200;6.080;2024-02-15T08:06:51;1.13;;;0.90;;
76121;SDS011;70471;53.200;6.080;2024-02-15T08:11:44;0.70;;;0.70;;
76121;SDS011;70471;53.200;6.080;2024-02-15T08:16:38;1.10;;;0.93;;
76121;SDS011;70471;53.200;6.080;2024-02-15T08:21:31;1.63;;;0.80;;
76121;SDS011;70471;53.200;6.080;2024-02-15T08:26:24;1.38;;;0.85;;
76121;SDS011;70471;53.200;6.080;2024-02-15T08:31:16;2.00;;;1.00;;
76121;SDS011;70471;53.200;6.080;2024-02-15T08:36:11;1.83;;;1.08;;
76121;SDS011;70471;53.200;6.080;2024-02-15T08:41:04;2.90;;;1.00;;
76121;SDS011;70471;53.200;6.080;2024-02-15T08:45:58;1.13;;;0.90;;
76121;SDS011;70471;53.200;6.080;2024-02-15T08:50:51;0.70;;;0.70;;
76121;SDS011;70471;53.200;6.080;2024-02-15T08:55:45;1.38;;;0.73;;
76121;SDS011;70471;53.200;6.080;2024-02-15T09:00:38;1.45;;;0.82;;
76121;SDS011;70471;53.200;6.080;2024-02-15T09:05:34;1.00;;;0.68;;
76121;SDS011;70471;53.200;6.080;2024-02-15T09:10:27;0.93;;;0.70;;
76121;SDS011;70471;53.200;6.080;2024-02-15T09:15:22;2.03;;;0.70;;
76121;SDS011;70471;53.200;6.080;2024-02-15T09:20:15;0.95;;;0.70;;
76121;SDS011;70471;53.200;6.080;2024-02-15T09:25:08;0.85;;;0.80;;
76121;SDS011;70471;53.200;6.080;2024-02-15T09:30:03;0.68;;;0.68;;
76121;SDS011;70471;53.200;6.080;2024-02-15T09:35:00;0.98;;;0.73;;
76121;SDS011;70471;53.200;6.080;2024-02-15T09:39:52;1.10;;;0.68;;
76121;SDS011;70471;53.200;6.080;2024-02-15T09:44:45;2.08;;;0.95;;
76121;SDS011;70471;53.200;6.080;2024-02-15T09:49:38;1.10;;;0.90;;
76121;SDS011;70471;53.200;6.080;2024-02-15T09:54:32;1.02;;;0.70;;
76121;SDS011;70471;53.200;6.080;2024-02-15T09:59:26;0.93;;;0.90;;
76121;SDS011;70471;53.200;6.080;2024-02-15T10:04:18;1.10;;;0.80;;
76121;SDS011;70471;53.200;6.080;2024-02-15T10:09:23;1.13;;;0.75;;
76121;SDS011;70471;53.200;6.080;2024-02-15T10:14:19;1.50;;;0.60;;
76121;SDS011;70471;53.200;6.080;2024-02-15T10:19:12;1.38;;;0.80;;
76121;SDS011;70471;53.200;6.080;2024-02-15T10:24:05;0.70;;;0.70;;
76121;SDS011;70471;53.200;6.080;2024-02-15T10:29:05;1.60;;;0.60;;
76121;SDS011;70471;53.200;6.080;2024-02-15T10:34:06;0.43;;;0.43;;
76121;SDS011;70471;53.200;6.080;2024-02-15T10:39:09;1.00;;;0.70;;
76121;SDS011;70471;53.200;6.080;2024-02-15T10:44:07;0.88;;;0.65;;
76121;SDS011;70471;53.200;6.080;2024-02-15T10:49:00;0.65;;;0.50;;
76121;SDS011;70471;53.200;6.080;2024-02-15T10:53:55;1.42;;;0.57;;
76121;SDS011;70471;53.200;6.080;2024-02-15T10:58:56;0.73;;;0.57;;
76121;SDS011;70471;53.200;6.080;2024-02-15T11:04:00;0.50;;;0.40;;
76121;SDS011;70471;53.200;6.080;2024-02-15T11:08:59;1.05;;;0.60;;
76121;SDS011;70471;53.200;6.080;2024-02-15T11:19:40;2.40;;;0.50;;
76121;SDS011;70471;53.200;6.080;2024-02-15T11:24:38;0.45;;;0.40;;
76121;SDS011;70471;53.200;6.080;2024-02-15T11:29:50;0.40;;;0.40;;
76121;SDS011;70471;53.200;6.080;2024-02-15T11:34:44;0.60;;;0.50;;
76121;SDS011;70471;53.200;6.080;2024-02-15T11:39:41;0.40;;;0.30;;
76121;SDS011;70471;53.200;6.080;2024-02-15T11:44:34;0.50;;;0.50;;
76121;SDS011;70471;53.200;6.080;2024-02-15T11:49:26;0.55;;;0.55;;
76121;SDS011;70471;53.200;6.080;2024-02-15T11:54:20;0.60;;;0.52;;
76121;SDS011;70471;53.200;6.080;2024-02-15T11:59:13;0.88;;;0.40;;
76121;SDS011;70471;53.200;6.080;2024-02-15T12:04:19;0.45;;;0.40;;
76121;SDS011;70471;53.200;6.080;2024-02-15T12:09:29;1.05;;;0.95;;
76121;SDS011;70471;53.200;6.080;2024-02-15T12:14:40;1.00;;;0.60;;
76121;SDS011;70471;53.200;6.080;2024-02-15T12:19:51;0.50;;;0.40;;
76121;SDS011;70471;53.200;6.080;2024-02-15T12:24:44;0.77;;;0.73;;
76121;SDS011;70471;53.200;6.080;2024-02-15T12:29:37;1.55;;;0.70;;
76121;SDS011;70471;53.200;6.080;2024-02-15T12:34:30;1.00;;;0.75;;
76121;SDS011;70471;53.200;6.080;2024-02-15T12:39:26;1.05;;;0.80;;
76121;SDS011;70471;53.200;6.080;2024-02-15T12:44:18;1.38;;;0.70;;
76121;SDS011;70471;53.200;6.080;2024-02-15T12:49:12;1.38;;;1.00;;
76121;SDS011;70471;53.200;6.080;2024-02-15T12:54:22;2.28;;;1.10;;
76121;SDS011;70471;53.200;6.080;2024-02-15T12:59:16;4.75;;;0.80;;
76121;SDS011;70471;53.200;6.080;2024-02-15T13:04:09;1.50;;;0.98;;
76121;SDS011;70471;53.200;6.080;2024-02-15T13:09:02;1.65;;;0.90;;
76121;SDS011;70471;53.200;6.080;2024-02-15T13:13:57;1.67;;;0.98;;
76121;SDS011;70471;53.200;6.080;2024-02-15T13:18:50;3.20;;;1.70;;
76121;SDS011;70471;53.200;6.080;2024-02-15T13:23:42;2.75;;;1.92;;
76121;SDS011;70471;53.200;6.080;2024-02-15T13:28:34;4.63;;;2.33;;
76121;SDS011;70471;53.200;6.080;2024-02-15T13:33:27;3.33;;;1.80;;
76121;SDS011;70471;53.200;6.080;2024-02-15T13:38:21;1.80;;;1.50;;
76121;SDS011;70471;53.200;6.080;2024-02-15T13:43:14;2.35;;;1.70;;
76121;SDS011;70471;53.200;6.080;2024-02-15T13:48:07;2.80;;;1.63;;
76121;SDS011;70471;53.200;6.080;2024-02-15T13:53:03;1.63;;;1.10;;
76121;SDS011;70471;53.200;6.080;2024-02-15T13:57:55;1.17;;;0.95;;
76121;SDS011;70471;53.200;6.080;2024-02-15T14:02:48;2.75;;;1.40;;
76121;SDS011;70471;53.200;6.080;2024-02-15T14:07:41;1.77;;;1.25;;
76121;SDS011;70471;53.200;6.080;2024-02-15T14:12:36;1.83;;;1.10;;
76121;SDS011;70471;53.200;6.080;2024-02-15T14:17:30;1.63;;;1.10;;
76121;SDS011;70471;53.200;6.080;2024-02-15T14:22:22;1.73;;;1.23;;
76121;SDS011;70471;53.200;6.080;2024-02-15T14:27:18;2.92;;;1.10;;
76121;SDS011;70471;53.200;6.080;2024-02-15T14:32:12;2.22;;;1.20;;
76121;SDS011;70471;53.200;6.080;2024-02-15T14:37:22;1.23;;;0.80;;
76121;SDS011;70471;53.200;6.080;2024-02-15T14:42:14;2.10;;;1.10;;
76121;SDS011;70471;53.200;6.080;2024-02-15T14:47:06;1.90;;;1.10;;
76121;SDS011;70471;53.200;6.080;2024-02-15T14:52:00;2.45;;;1.40;;
76121;SDS011;70471;53.200;6.080;2024-02-15T14:56:54;1.50;;;1.20;;
76121;SDS011;70471;53.200;6.080;2024-02-15T15:01:47;2.03;;;1.15;;
76121;SDS011;70471;53.200;6.080;2024-02-15T15:06:41;2.85;;;1.23;;
76121;SDS011;70471;53.200;6.080;2024-02-15T15:11:55;1.63;;;1.10;;
76121;SDS011;70471;53.200;6.080;2024-02-15T15:17:05;1.67;;;0.90;;
76121;SDS011;70471;53.200;6.080;2024-02-15T15:21:57;2.03;;;1.20;;
76121;SDS011;70471;53.200;6.080;2024-02-15T15:26:50;1.35;;;0.93;;
76121;SDS011;70471;53.200;6.080;2024-02-15T15:31:43;1.13;;;1.02;;
76121;SDS011;70471;53.200;6.080;2024-02-15T15:36:35;1.88;;;1.10;;
76121;SDS011;70471;53.200;6.080;2024-02-15T15:41:29;1.90;;;1.40;;
76121;SDS011;70471;53.200;6.080;2024-02-15T15:46:21;1.65;;;1.08;;
76121;SDS011;70471;53.200;6.080;2024-02-15T15:51:15;1.48;;;1.27;;
76121;SDS011;70471;53.200;6.080;2024-02-15T15:56:07;2.47;;;1.40;;
76121;SDS011;70471;53.200;6.080;2024-02-15T16:01:00;1.15;;;1.02;;
76121;SDS011;70471;53.200;6.080;2024-02-15T16:05:51;1.40;;;1.00;;
76121;SDS011;70471;53.200;6.080;2024-02-15T16:10:46;1.25;;;1.15;;
76121;SDS011;70471;53.200;6.080;2024-02-15T16:15:38;2.15;;;1.00;;
76121;SDS011;70471;53.200;6.080;2024-02-15T16:20:30;1.27;;;0.90;;
76121;SDS011;70471;53.200;6.080;2024-02-15T16:25:22;2.63;;;1.27;;
76121;SDS011;70471;53.200;6.080;2024-02-15T16:30:15;1.23;;;0.93;;
76121;SDS011;70471;53.200;6.080;2024-02-15T16:35:08;0.60;;;0.60;;
76121;SDS011;70471;53.200;6.080;2024-02-15T16:40:05;2.53;;;1.13;;
76121;SDS011;70471;53.200;6.080;2024-02-15T16:44:59;1.08;;;0.68;;
76121;SDS011;70471;53.200;6.080;2024-02-15T16:49:53;1.38;;;0.68;;
76121;SDS011;70471;53.200;6.080;2024-02-15T16:54:45;2.83;;;1.13;;
76121;SDS011;70471;53.200;6.080;2024-02-15T16:59:36;1.88;;;1.08;;
76121;SDS011;70471;53.200;6.080;2024-02-15T17:04:29;1.95;;;1.10;;
76121;SDS011;70471;53.200;6.080;2024-02-15T17:09:22;2.28;;;1.05;;
76121;SDS011;70471;53.200;6.080;2024-02-15T17:14:14;1.45;;;0.90;;
76121;SDS011;70471;53.200;6.080;2024-02-15T17:19:08;0.60;;;0.60;;
76121;SDS011;70471;53.200;6.080;2024-02-15T17:24:00;1.80;;;0.80;;
76121;SDS011;70471;53.200;6.080;2024-02-15T17:28:56;1.30;;;1.08;;
76121;SDS011;70471;53.200;6.080;2024-02-15T17:33:51;2.30;;;1.10;;
76121;SDS011;70471;53.200;6.080;2024-02-15T17:38:43;1.48;;;0.95;;
76121;SDS011;70471;53.200;6.080;2024-02-15T17:43:35;1.10;;;0.70;;
76121;SDS011;70471;53.200;6.080;2024-02-15T17:48:29;2.47;;;0.80;;
76121;SDS011;70471;53.200;6.080;2024-02-15T17:53:21;1.23;;;0.75;;
76121;SDS011;70471;53.200;6.080;2024-02-15T17:58:14;1.23;;;0.70;;
76121;SDS011;70471;53.200;6.080;2024-02-15T18:03:05;0.88;;;0.60;;
76121;SDS011;70471;53.200;6.080;2024-02-15T18:08:02;1.00;;;0.80;;
76121;SDS011;70471;53.200;6.080;2024-02-15T18:12:55;2.05;;;0.70;;
76121;SDS011;70471;53.200;6.080;2024-02-15T18:17:47;1.20;;;0.60;;
76121;SDS011;70471;53.200;6.080;2024-02-15T18:22:40;1.25;;;0.65;;
76121;SDS011;70471;53.200;6.080;2024-02-15T18:27:35;1.15;;;0.50;;
76121;SDS011;70471;53.200;6.080;2024-02-15T18:32:27;1.08;;;0.80;;
76121;SDS011;70471;53.200;6.080;2024-02-15T18:37:19;0.95;;;0.50;;
76121;SDS011;70471;53.200;6.080;2024-02-15T18:42:13;0.80;;;0.60;;
76121;SDS011;70471;53.200;6.080;2024-02-15T18:47:08;0.77;;;0.60;;
76121;SDS011;70471;53.200;6.080;2024-02-15T18:52:00;0.68;;;0.63;;
76121;SDS011;70471;53.200;6.080;2024-02-15T18:56:53;1.85;;;0.80;;
76121;SDS011;70471;53.200;6.080;2024-02-15T19:01:45;0.52;;;0.43;;
76121;SDS011;70471;53.200;6.080;2024-02-15T19:06:39;0.80;;;0.65;;
76121;SDS011;70471;53.200;6.080;2024-02-15T19:11:32;1.35;;;0.52;;
76121;SDS011;70471;53.200;6.080;2024-02-15T19:16:26;0.55;;;0.47;;
76121;SDS011;70471;53.200;6.080;2024-02-15T19:21:19;1.10;;;0.77;;
76121;SDS011;70471;53.200;6.080;2024-02-15T19:26:14;0.63;;;0.60;;
76121;SDS011;70471;53.200;6.080;2024-02-15T19:31:06;1.15;;;0.80;;
76121;SDS011;70471;53.200;6.080;2024-02-15T19:35:58;1.27;;;0.50;;
76121;SDS011;70471;53.200;6.080;2024-02-15T19:40:50;0.63;;;0.50;;
76121;SDS011;70471;53.200;6.080;2024-02-15T19:45:44;1.65;;;0.70;;
76121;SDS011;70471;53.200;6.080;2024-02-15T19:50:36;0.88;;;0.50;;
76121;SDS011;70471;53.200;6.080;2024-02-15T19:55:29;1.05;;;0.70;;
76121;SDS011;70471;53.200;6.080;2024-02-15T20:00:21;0.98;;;0.70;;
76121;SDS011;70471;53.200;6.080;2024-02-15T20:05:15;1.00;;;0.52;;
76121;SDS011;70471;53.200;6.080;2024-02-15T20:10:07;2.25;;;0.77;;
76121;SDS011;70471;53.200;6.080;2024-02-15T20:14:59;1.35;;;0.50;;
76121;SDS011;70471;53.200;6.080;2024-02-15T20:19:51;2.03;;;0.73;;
76121;SDS011;70471;53.200;6.080;2024-02-15T20:24:45;1.00;;;0.60;;
76121;SDS011;70471;53.200;6.080;2024-02-15T20:29:38;1.08;;;0.60;;
76121;SDS011;70471;53.200;6.080;2024-02-15T20:34:31;3.55;;;0.70;;
76121;SDS011;70471;53.200;6.080;2024-02-15T20:39:23;1.25;;;0.47;;
76121;SDS011;70471;53.200;6.080;2024-02-15T20:44:18;1.80;;;0.40;;
76121;SDS011;70471;53.200;6.080;2024-02-15T20:49:13;0.73;;;0.57;;
76121;SDS011;70471;53.200;6.080;2024-02-15T20:54:05;0.65;;;0.50;;
76121;SDS011;70471;53.200;6.080;2024-02-15T20:58:57;0.82;;;0.60;;
76121;SDS011;70471;53.200;6.080;2024-02-15T21:03:52;2.08;;;0.50;;
76121;SDS011;70471;53.200;6.080;2024-02-15T21:08:45;0.98;;;0.68;;
76121;SDS011;70471;53.200;6.080;2024-02-15T21:13:37;1.67;;;0.82;;
76121;SDS011;70471;53.200;6.080;2024-02-15T21:18:31;0.75;;;0.60;;
76121;SDS011;70471;53.200;6.080;2024-02-15T21:23:25;1.67;;;0.65;;
76121;SDS011;70471;53.200;6.080;2024-02-15T21:28:18;0.80;;;0.60;;
76121;SDS011;70471;53.200;6.080;2024-02-15T21:33:10;1.38;;;0.65;;
76121;SDS011;70471;53.200;6.080;2024-02-15T21:38:02;2.22;;;0.80;;
76121;SDS011;70471;53.200;6.080;2024-02-15T21:42:57;0.93;;;0.75;;
76121;SDS011;70471;53.200;6.080;2024-02-15T21:47:48;0.80;;;0.50;;
76121;SDS011;70471;53.200;6.080;2024-02-15T21:52:41;1.17;;;0.68;;
76121;SDS011;70471;53.200;6.080;2024-02-15T21:57:34;1.35;;;0.70;;
76121;SDS011;70471;53.200;6.080;2024-02-15T22:02:28;0.95;;;0.63;;
76121;SDS011;70471;53.200;6.080;2024-02-15T22:07:20;1.10;;;0.60;;
76121;SDS011;70471;53.200;6.080;2024-02-15T22:12:13;1.35;;;0.85;;
76121;SDS011;70471;53.200;6.080;2024-02-15T22:17:06;0.80;;;0.40;;
76121;SDS011;70471;53.200;6.080;2024-02-15T22:21:59;0.73;;;0.50;;
76121;SDS011;70471;53.200;6.080;2024-02-15T22:26:53;1.92;;;0.77;;
76121;SDS011;70471;53.200;6.080;2024-02-15T22:31:48;0.65;;;0.55;;
76121;SDS011;70471;53.200;6.080;2024-02-15T22:36:41;0.95;;;0.65;;
76121;SDS011;70471;53.200;6.080;2024-02-15T22:41:34;1.48;;;0.60;;
76121;SDS011;70471;53.200;6.080;2024-02-15T22:46:28;2.13;;;0.80;;
76121;SDS011;70471;53.200;6.080;2024-02-15T22:51:20;1.17;;;0.80;;
76121;SDS011;70471;53.200;6.080;2024-02-15T22:56:13;0.75;;;0.60;;
76121;SDS011;70471;53.200;6.080;2024-02-15T23:01:07;1.35;;;0.68;;
76121;SDS011;70471;53.200;6.080;2024-02-15T23:06:00;1.42;;;0.70;;
76121;SDS011;70471;53.200;6.080;2024-02-15T23:10:52;1.83;;;0.70;;
76121;SDS011;70471;53.200;6.080;2024-02-15T23:15:44;1.75;;;0.80;;
76121;SDS011;70471;53.200;6.080;2024-02-15T23:20:39;0.55;;;0.55;;
76121;SDS011;70471;53.200;6.080;2024-02-15T23:25:34;1.15;;;0.73;;
76121;SDS011;70471;53.200;6.080;2024-02-15T23:30:26;1.58;;;0.90;;
76121;SDS011;70471;53.200;6.080;2024-02-15T23:35:18;0.90;;;0.60;;
76121;SDS011;70471;53.200;6.080;2024-02-15T23:40:14;1.13;;;0.57;;
76121;SDS011;70471;53.200;6.080;2024-02-15T23:45:18;0.80;;;0.80;;
76121;SDS011;70471;53.200;6.080;2024-02-15T23:50:11;0.70;;;0.52;;
76121;SDS011;70471;53.200;6.080;2024-02-15T23:55:06;1.67;;;0.98;;
